Terminal Aerodrome Forecast
Issued by NWS Cheyenne, WY

Current Version | Previous Version | Text Only | Print | Product List | Glossary On
Versions: 1 2 3 4 5 6 7 8 9 10 11 12 13 14 15 16 17 18 19 20 21 22 23 24 25 26 27 28 29 30 31 32 33 34 35 36 37 38 39 40 41 42 43 44 45 46 47 48 49 50
000
FTUS45 KCYS 280532 CCA
TAFCYS
TAF COR
KCYS 280532Z 2806/0106 19008KT P6SM SCT007
      TEMPO 2806/2808 BKN007
     FM280900 27006KT P6SM SCT007
     FM281500 02009KT P6SM SCT009 BKN015
     FM281800 03008KT 3SM BR BKN007 OVC015=

USA.gov is the U.S. government's official web portal to all federal, state and local government web resources and services.